Time;durP1;ratioP1;P1;durP2;ratioP2;P2;SDS_P1;SDS_P2;PMS_P1;PMS_P2;Temp;Humidity;BMP_temperature;BMP_pressure;BME280_temperature;BME280_humidity;BME280_pressure;Samples;Min_cycle;Max_cycle;Signal;HPM_P1;HPM_P2
2021/12/12 00:00:53;;;;;;;36.70;16.47;;;4.00;99.90;;;;;;5036141;28;20275;-59
2021/12/12 00:03:33;;;;;;;38.23;18.87;;;4.00;99.90;;;;;;5036016;28;20222;-59
2021/12/12 00:06:07;;;;;;;30.77;19.63;;;4.00;99.90;;;;;;5034408;28;20254;-59
2021/12/12 00:08:34;;;;;;;32.97;19.47;;;4.00;99.90;;;;;;5036194;28;20204;-59
2021/12/12 00:11:09;;;;;;;32.57;18.47;;;4.10;99.90;;;;;;5036694;28;20603;-59
2021/12/12 00:13:42;;;;;;;35.73;19.03;;;4.10;99.90;;;;;;5035236;28;20199;-59
2021/12/12 00:16:10;;;;;;;32.83;18.50;;;4.10;44.90;;;;;;5037201;28;20253;-59
2021/12/12 00:18:38;;;;;;;23.63;12.10;;;4.20;7.20;;;;;;5035508;28;20229;-59
2021/12/12 00:21:10;;;;;;;27.30;14.83;;;4.20;1.00;;;;;;5020240;28;20289;-59
2021/12/12 00:23:38;;;;;;;32.13;15.93;;;4.20;1.00;;;;;;5020973;28;20269;-59
2021/12/12 00:26:06;;;;;;;30.03;17.20;;;4.20;1.00;;;;;;5035604;28;20294;-59
2021/12/12 00:28:34;;;;;;;27.50;15.67;;;4.20;1.00;;;;;;5017538;28;20302;-58
2021/12/12 00:31:08;;;;;;;23.70;13.17;;;4.10;1.00;;;;;;5034844;28;20196;-59
2021/12/12 00:33:42;;;;;;;26.73;13.40;;;4.10;1.00;;;;;;5036774;28;20671;-59
2021/12/12 00:36:11;;;;;;;35.03;16.87;;;4.10;1.00;;;;;;5036039;28;22620;-59
2021/12/12 00:38:38;;;;;;;26.40;13.43;;;4.20;1.00;;;;;;5018420;28;20767;-58
2021/12/12 00:41:10;;;;;;;26.97;14.33;;;4.10;1.00;;;;;;5026698;28;20196;-59
2021/12/12 00:43:45;;;;;;;26.20;15.67;;;4.20;1.00;;;;;;5019576;28;20245;-58
2021/12/12 00:46:14;;;;;;;19.23;11.63;;;4.10;1.00;;;;;;5039401;28;20192;-58
2021/12/12 00:48:44;;;;;;;22.57;12.47;;;4.10;1.00;;;;;;5022346;28;20242;-59
2021/12/12 00:51:14;;;;;;;16.57;11.37;;;4.10;1.00;;;;;;5037957;28;20204;-59
2021/12/12 00:53:43;;;;;;;22.87;10.33;;;4.20;1.00;;;;;;5039825;28;20216;-59
2021/12/12 00:56:11;;;;;;;22.47;9.90;;;4.10;1.00;;;;;;5041199;28;20879;-59
2021/12/12 00:58:39;;;;;;;20.87;10.43;;;4.20;1.00;;;;;;5038261;28;20204;-59
2021/12/12 01:01:10;;;;;;;18.53;9.80;;;4.10;1.00;;;;;;5040613;28;20196;-59
2021/12/12 01:03:46;;;;;;;18.53;9.03;;;4.10;1.00;;;;;;5040200;28;20255;-59
2021/12/12 01:06:14;;;;;;;16.57;9.67;;;4.10;1.00;;;;;;5027885;28;20752;-59
2021/12/12 01:08:43;;;;;;;16.97;8.63;;;4.10;1.00;;;;;;5037977;28;20226;-59
2021/12/12 01:11:13;;;;;;;14.53;8.27;;;4.10;1.00;;;;;;5039402;28;20208;-59
2021/12/12 01:13:41;;;;;;;17.43;8.47;;;4.10;1.00;;;;;;5040715;28;20211;-59
2021/12/12 01:16:16;;;;;;;16.83;8.30;;;4.10;1.00;;;;;;5035148;28;20219;-59
2021/12/12 01:18:52;;;;;;;15.40;8.00;;;4.10;1.00;;;;;;5039789;28;20195;-59
2021/12/12 01:21:25;;;;;;;15.10;7.53;;;4.10;1.00;;;;;;5039402;28;20594;-59
2021/12/12 01:24:03;;;;;;;19.53;8.17;;;4.10;1.00;;;;;;5039481;28;20337;-59
2021/12/12 01:26:31;;;;;;;17.20;7.97;;;4.10;1.00;;;;;;5006084;28;20214;-60
2021/12/12 01:29:00;;;;;;;14.90;8.43;;;4.10;1.00;;;;;;5016886;28;20212;-59
2021/12/12 01:31:32;;;;;;;12.87;7.30;;;4.10;1.00;;;;;;5037185;28;20748;-59
2021/12/12 01:34:10;;;;;;;14.40;6.80;;;4.10;1.00;;;;;;5038874;28;20204;-59
2021/12/12 01:39:44;;;;;;;23.33;8.00;;;4.10;1.00;;;;;;5036283;28;20281;-59
2021/12/12 01:42:16;;;;;;;16.17;6.43;;;4.00;1.00;;;;;;5036452;28;20192;-59
2021/12/12 01:44:51;;;;;;;16.00;7.17;;;4.10;1.00;;;;;;5037839;28;20279;-59
2021/12/12 01:47:27;;;;;;;15.27;6.57;;;4.10;1.00;;;;;;5015169;28;20199;-59
2021/12/12 01:49:59;;;;;;;10.70;6.10;;;4.10;1.00;;;;;;5037409;28;20275;-58
2021/12/12 01:52:28;;;;;;;13.03;5.87;;;4.10;1.00;;;;;;5038848;28;20245;-58
2021/12/12 01:55:03;;;;;;;11.87;6.17;;;4.10;1.00;;;;;;5038789;28;20220;-58
2021/12/12 01:57:35;;;;;;;19.47;7.43;;;4.10;1.00;;;;;;5020152;28;20233;-58
2021/12/12 02:00:20;;;;;;;10.90;5.70;;;4.10;1.00;;;;;;5020282;28;20708;-58
2021/12/12 02:02:48;;;;;;;17.07;7.53;;;4.10;1.00;;;;;;5021545;28;20190;-58
2021/12/12 02:05:18;;;;;;;10.83;5.40;;;4.10;1.00;;;;;;5036212;28;20298;-58
2021/12/12 02:07:53;;;;;;;14.93;5.90;;;4.10;1.00;;;;;;5037768;28;20235;-59
2021/12/12 02:10:25;;;;;;;9.73;5.20;;;4.10;1.00;;;;;;5019524;28;20202;-59
2021/12/12 02:12:53;;;;;;;15.97;5.43;;;4.00;1.00;;;;;;5039555;28;20713;-59
2021/12/12 02:15:20;;;;;;;11.60;4.87;;;4.10;1.00;;;;;;5037267;28;20744;-59
2021/12/12 02:17:49;;;;;;;11.53;5.20;;;4.10;1.00;;;;;;5020770;28;20200;-59
2021/12/12 02:20:30;;;;;;;10.73;4.63;;;4.00;1.00;;;;;;5025461;28;20195;-59
2021/12/12 02:36:35;;;;;;;9.00;4.53;;;4.10;1.00;;;;;;5039223;28;20277;-59
2021/12/12 02:39:08;;;;;;;9.30;4.43;;;4.00;1.00;;;;;;5008836;28;20318;-59
2021/12/12 02:41:35;;;;;;;8.50;4.53;;;4.10;1.00;;;;;;5038341;28;20261;-59
2021/12/12 02:44:05;;;;;;;12.63;4.90;;;4.10;1.00;;;;;;5038750;28;20582;-59
2021/12/12 02:46:35;;;;;;;12.70;4.80;;;4.00;1.00;;;;;;5037775;28;20246;-59
2021/12/12 02:49:10;;;;;;;13.00;5.00;;;4.10;1.00;;;;;;5037127;28;20277;-59
2021/12/12 02:51:40;;;;;;;12.50;4.37;;;4.10;1.00;;;;;;5021745;28;20278;-59
2021/12/12 02:54:09;;;;;;;8.37;4.40;;;4.10;1.00;;;;;;5036683;28;20188;-59
2021/12/12 02:56:47;;;;;;;8.70;3.63;;;4.10;1.00;;;;;;5019768;28;20199;-59
2021/12/12 02:59:18;;;;;;;10.27;4.03;;;4.10;1.00;;;;;;5037202;28;20200;-59
2021/12/12 03:01:54;;;;;;;11.43;4.03;;;4.10;1.00;;;;;;5029500;28;20602;-59
2021/12/12 03:04:23;;;;;;;7.23;3.80;;;4.20;99.90;;;;;;5025665;28;20589;-59
2021/12/12 03:06:50;;;;;;;10.23;5.30;;;4.30;99.90;;;;;;5040249;28;20201;-59
2021/12/12 03:09:26;;;;;;;9.33;3.80;;;4.30;99.90;;;;;;5023174;28;20255;-59
2021/12/12 03:11:58;;;;;;;8.87;4.27;;;4.30;99.90;;;;;;5041392;28;20207;-59
2021/12/12 03:14:32;;;;;;;8.60;4.20;;;4.30;99.90;;;;;;5043418;28;20273;-59
2021/12/12 03:17:11;;;;;;;9.03;3.60;;;4.30;99.90;;;;;;5040601;28;20204;-59
2021/12/12 03:19:38;;;;;;;9.87;3.67;;;4.30;99.90;;;;;;5042416;28;20242;-59
2021/12/12 03:22:09;;;;;;;8.33;3.80;;;4.30;99.90;;;;;;5042919;28;20271;-58
2021/12/12 03:24:37;;;;;;;10.43;3.53;;;4.30;99.90;;;;;;5042319;28;20204;-61
2021/12/12 03:27:06;;;;;;;10.33;3.70;;;4.30;99.90;;;;;;5041899;28;20253;-58
2021/12/12 03:29:34;;;;;;;10.47;4.17;;;4.40;99.90;;;;;;5039203;28;20227;-58
2021/12/12 03:32:06;;;;;;;6.37;3.13;;;4.40;99.90;;;;;;5026997;28;20208;-60
2021/12/12 03:34:36;;;;;;;14.77;3.63;;;4.40;99.90;;;;;;5034769;28;20569;-60
2021/12/12 03:37:07;;;;;;;10.50;3.63;;;4.40;99.90;;;;;;5041484;28;20203;-59
2021/12/12 03:39:38;;;;;;;11.70;3.87;;;4.50;99.90;;;;;;5039936;28;20247;-59
2021/12/12 03:42:15;;;;;;;8.00;3.60;;;4.40;99.90;;;;;;5040802;28;20679;-59
2021/12/12 03:44:44;;;;;;;8.20;3.73;;;4.40;99.90;;;;;;5041552;28;20192;-59
2021/12/12 03:47:28;;;;;;;7.43;3.33;;;4.40;99.90;;;;;;5041179;28;20249;-59
2021/12/12 03:49:57;;;;;;;7.47;3.10;;;4.50;99.90;;;;;;5040853;28;20204;-57
2021/12/12 03:52:25;;;;;;;8.63;3.33;;;4.50;99.90;;;;;;5023221;28;20188;-58
2021/12/12 03:54:54;;;;;;;11.70;3.53;;;4.50;99.90;;;;;;5039983;28;20249;-59
2021/12/12 03:57:22;;;;;;;7.43;3.00;;;4.50;99.90;;;;;;5042507;28;20644;-59
2021/12/12 03:59:49;;;;;;;8.47;3.27;;;4.60;99.90;;;;;;5040714;28;20195;-59
2021/12/12 04:02:16;;;;;;;5.90;2.80;;;4.60;99.90;;;;;;5041043;28;20217;-58
2021/12/12 04:04:45;;;;;;;5.03;3.10;;;4.60;99.90;;;;;;5022718;28;20223;-58
2021/12/12 04:07:24;;;;;;;10.63;3.20;;;4.60;99.90;;;;;;5041366;28;20253;-59
2021/12/12 04:09:52;;;;;;;8.80;3.20;;;4.60;99.90;;;;;;5034840;28;20222;-59
2021/12/12 04:12:21;;;;;;;9.60;3.37;;;4.60;99.90;;;;;;5041478;28;20233;-59
2021/12/12 04:14:52;;;;;;;15.50;4.77;;;4.70;99.90;;;;;;5029508;28;20200;-59
2021/12/12 04:17:22;;;;;;;9.13;2.97;;;4.70;99.90;;;;;;5039701;28;20207;-60
2021/12/12 04:19:52;;;;;;;7.37;3.10;;;4.70;99.90;;;;;;5040134;28;20621;-59
2021/12/12 04:22:20;;;;;;;9.90;3.10;;;4.70;99.90;;;;;;5040321;28;20198;-59
2021/12/12 04:24:49;;;;;;;8.70;3.63;;;4.70;99.90;;;;;;5040591;28;20563;-59
2021/12/12 04:27:18;;;;;;;11.17;4.00;;;4.70;99.90;;;;;;5030390;28;20209;-59
2021/12/12 04:29:48;;;;;;;7.53;3.47;;;4.70;1.00;;;;;;5032972;28;20464;-59
2021/12/12 04:32:19;;;;;;;9.97;3.43;;;4.70;1.00;;;;;;5021049;28;20246;-60
2021/12/12 04:34:51;;;;;;;8.70;3.30;;;4.60;1.00;;;;;;5036120;28;20188;-59
2021/12/12 04:37:20;;;;;;;6.90;3.33;;;4.70;1.00;;;;;;5003776;28;20748;-59
2021/12/12 04:39:55;;;;;;;8.67;3.80;;;4.70;1.00;;;;;;5023081;28;20709;-59
2021/12/12 04:42:28;;;;;;;8.27;3.47;;;4.70;1.00;;;;;;5040606;28;20195;-59
2021/12/12 04:45:12;;;;;;;8.47;3.50;;;4.70;1.00;;;;;;5041842;28;20326;-59
2021/12/12 04:50:51;;;;;;;10.27;3.77;;;4.60;1.00;;;;;;5040516;28;20262;-59
2021/12/12 04:53:31;;;;;;;10.77;3.33;;;4.60;1.00;;;;;;5037206;28;20287;-59
2021/12/12 04:56:08;;;;;;;12.33;3.43;;;4.70;1.00;;;;;;5028032;28;20218;-59
2021/12/12 04:58:49;;;;;;;11.70;3.93;;;4.70;1.00;;;;;;5025022;28;20221;-59
2021/12/12 05:01:24;;;;;;;17.10;3.73;;;4.60;60.80;;;;;;5039558;28;20349;-59
2021/12/12 05:03:57;;;;;;;12.33;3.70;;;4.60;49.80;;;;;;5027406;28;20219;-59
2021/12/12 05:06:39;;;;;;;9.30;3.57;;;4.60;92.80;;;;;;5041151;28;20203;-59
2021/12/12 05:09:11;;;;;;;13.80;4.00;;;4.50;99.90;;;;;;5037852;28;20622;-59
2021/12/12 05:11:53;;;;;;;12.10;4.00;;;4.50;99.90;;;;;;5038944;28;20188;-59
2021/12/12 05:14:23;;;;;;;10.37;3.47;;;4.50;99.90;;;;;;5039917;28;20316;-59
2021/12/12 05:16:57;;;;;;;9.17;3.60;;;4.50;99.90;;;;;;5038887;28;20674;-59
2021/12/12 05:19:30;;;;;;;14.33;4.00;;;4.50;99.90;;;;;;5027506;28;20295;-59
2021/12/12 05:22:06;;;;;;;9.27;3.03;;;4.40;99.90;;;;;;5036049;28;20204;-59
2021/12/12 05:24:36;;;;;;;11.93;3.40;;;4.40;99.90;;;;;;5039113;28;20188;-59
2021/12/12 05:27:13;;;;;;;14.63;3.63;;;4.50;99.90;;;;;;5038499;28;20203;-59
2021/12/12 05:29:55;;;;;;;13.40;3.70;;;4.50;99.90;;;;;;5037228;28;20207;-59
2021/12/12 05:32:24;;;;;;;12.63;3.90;;;4.50;99.90;;;;;;5027043;28;20223;-59
2021/12/12 05:34:54;;;;;;;11.17;3.50;;;4.50;99.90;;;;;;5039991;28;20196;-59
2021/12/12 05:37:21;;;;;;;12.20;3.67;;;4.50;99.90;;;;;;5016287;28;20208;-59
2021/12/12 05:39:49;;;;;;;11.37;3.80;;;4.40;99.90;;;;;;5039219;28;20703;-59
2021/12/12 05:42:19;;;;;;;13.13;3.43;;;4.40;1.00;;;;;;5035361;28;20207;-59
2021/12/12 05:44:47;;;;;;;9.43;3.87;;;4.40;99.90;;;;;;5039539;28;20261;-59
2021/12/12 05:47:14;;;;;;;10.10;3.80;;;4.40;1.00;;;;;;5034325;28;20239;-60
2021/12/12 05:49:43;;;;;;;11.10;3.60;;;4.40;99.90;;;;;;5038320;28;20300;-59
2021/12/12 05:52:14;;;;;;;10.57;3.67;;;4.50;99.90;;;;;;5055965;28;20196;-59
2021/12/12 05:54:43;;;;;;;16.97;3.90;;;4.50;99.90;;;;;;5037361;28;20203;-59
2021/12/12 05:57:11;;;;;;;13.10;4.57;;;4.60;99.90;;;;;;5037827;28;20200;-59
2021/12/12 05:59:39;;;;;;;6.83;3.70;;;4.60;99.90;;;;;;5038832;28;20254;-59
2021/12/12 06:02:07;;;;;;;10.40;3.80;;;4.60;99.90;;;;;;5021182;28;20262;-59
2021/12/12 06:04:35;;;;;;;17.33;4.10;;;4.60;99.90;;;;;;5036596;28;20220;-59
2021/12/12 06:07:06;;;;;;;12.80;4.43;;;4.60;99.90;;;;;;5039056;28;20203;-59
2021/12/12 06:09:35;;;;;;;13.50;4.37;;;4.60;99.90;;;;;;5038546;28;20217;-59
2021/12/12 06:12:05;;;;;;;14.27;4.27;;;4.70;34.80;;;;;;5041102;28;20195;-59
2021/12/12 06:14:37;;;;;;;6.90;3.73;;;4.70;13.10;;;;;;5020352;28;20218;-59
2021/12/12 06:17:09;;;;;;;12.60;3.77;;;4.70;1.00;;;;;;5038236;28;20241;-60
2021/12/12 06:19:37;;;;;;;8.33;3.60;;;4.80;1.00;;;;;;5039193;28;20200;-59
2021/12/12 06:22:05;;;;;;;11.23;3.10;;;4.80;1.00;;;;;;5037480;28;20628;-59
2021/12/12 06:24:33;;;;;;;9.33;3.60;;;4.80;1.00;;;;;;5037578;28;20222;-59
2021/12/12 06:27:07;;;;;;;10.00;3.70;;;4.80;1.00;;;;;;5038015;28;20271;-59
2021/12/12 06:29:36;;;;;;;10.03;3.80;;;4.80;1.00;;;;;;5038880;28;20580;-59
2021/12/12 06:32:05;;;;;;;12.77;4.23;;;4.80;1.00;;;;;;5022452;28;20196;-59
2021/12/12 06:34:32;;;;;;;12.77;3.77;;;4.80;1.00;;;;;;5039379;28;20282;-59
2021/12/12 06:37:00;;;;;;;11.73;4.10;;;4.80;1.00;;;;;;5044118;28;20219;-59
2021/12/12 06:39:27;;;;;;;11.83;3.67;;;4.90;1.00;;;;;;5030237;28;20227;-59
2021/12/12 06:41:54;;;;;;;13.30;4.30;;;4.90;1.00;;;;;;5042407;28;20281;-59
2021/12/12 06:44:22;;;;;;;12.73;4.57;;;4.90;1.00;;;;;;5043589;28;20250;-59
2021/12/12 06:46:51;;;;;;;14.33;5.30;;;4.90;1.00;;;;;;5043222;28;20231;-59
2021/12/12 06:49:18;;;;;;;8.83;4.27;;;4.80;1.00;;;;;;5043034;28;20317;-61
2021/12/12 06:51:48;;;;;;;19.27;4.80;;;4.80;99.90;;;;;;5041281;28;20202;-60
2021/12/12 06:54:19;;;;;;;7.27;4.20;;;4.90;99.90;;;;;;5041037;28;20675;-60
2021/12/12 06:56:52;;;;;;;7.80;4.20;;;4.90;99.90;;;;;;5040271;28;20543;-59
2021/12/12 06:59:22;;;;;;;16.80;6.07;;;4.80;99.90;;;;;;5036456;28;20657;-59
2021/12/12 07:01:50;;;;;;;11.90;4.40;;;4.80;1.00;;;;;;5041714;28;20217;-59
2021/12/12 07:04:19;;;;;;;8.40;4.10;;;4.70;1.00;;;;;;5039878;28;20227;-60
2021/12/12 07:06:49;;;;;;;11.40;4.50;;;4.70;1.00;;;;;;5040751;28;20200;-60
2021/12/12 07:09:16;;;;;;;11.97;5.33;;;4.70;1.00;;;;;;5039403;28;20212;-60
2021/12/12 07:11:45;;;;;;;14.90;4.77;;;4.80;1.00;;;;;;5041331;28;20192;-60
2021/12/12 07:14:14;;;;;;;14.37;4.93;;;4.80;1.00;;;;;;5043981;28;20241;-60
2021/12/12 07:16:42;;;;;;;10.17;3.97;;;4.90;99.90;;;;;;5042366;28;20274;-60
2021/12/12 07:19:09;;;;;;;9.60;3.77;;;5.00;99.90;;;;;;5029213;28;20204;-60
2021/12/12 07:21:37;;;;;;;11.20;4.27;;;5.00;99.90;;;;;;5041103;28;20671;-60
2021/12/12 07:24:05;;;;;;;14.13;5.10;;;5.00;1.00;;;;;;5026204;28;20253;-60
2021/12/12 07:26:33;;;;;;;14.37;5.23;;;5.10;1.00;;;;;;5041708;28;20191;-60
2021/12/12 07:29:00;;;;;;;11.43;4.73;;;5.00;1.00;;;;;;5041069;28;20227;-60
2021/12/12 07:31:31;;;;;;;11.50;3.90;;;5.00;1.00;;;;;;5040328;28;20226;-60
2021/12/12 07:34:02;;;;;;;11.70;4.00;;;5.10;1.00;;;;;;5039913;28;20224;-60
2021/12/12 07:36:32;;;;;;;13.77;4.37;;;5.10;99.90;;;;;;5040206;28;20274;-60
2021/12/12 07:39:04;;;;;;;13.10;5.13;;;5.10;99.90;;;;;;5024390;28;20250;-60
2021/12/12 07:41:32;;;;;;;14.00;9.37;;;5.10;1.00;;;;;;5038928;28;20704;-58
2021/12/12 07:44:04;;;;;;;11.17;4.90;;;5.10;1.00;;;;;;5039986;28;20193;-59
2021/12/12 07:46:31;;;;;;;8.10;4.50;;;5.20;1.00;;;;;;5040867;28;20652;-59
2021/12/12 07:49:00;;;;;;;10.43;5.57;;;5.20;99.90;;;;;;5041121;28;20273;-59
2021/12/12 07:51:28;;;;;;;11.17;4.70;;;5.20;99.90;;;;;;5041693;28;20291;-59
2021/12/12 07:54:00;;;;;;;11.07;4.43;;;5.20;1.00;;;;;;5023788;28;20229;-59
2021/12/12 07:56:31;;;;;;;9.37;4.30;;;5.20;1.00;;;;;;5030392;28;20196;-59
2021/12/12 07:59:02;;;;;;;11.00;4.60;;;5.20;1.00;;;;;;5040419;28;20663;-59
2021/12/12 08:01:29;;;;;;;8.00;4.17;;;5.30;40.90;;;;;;5042291;28;20519;-59
2021/12/12 08:03:58;;;;;;;10.57;5.53;;;5.40;99.90;;;;;;5037985;28;20219;-59
2021/12/12 08:06:26;;;;;;;12.73;6.30;;;5.40;99.90;;;;;;5042904;28;20674;-61
2021/12/12 08:08:53;;;;;;;8.57;4.47;;;5.40;1.00;;;;;;5044032;28;20586;-60
2021/12/12 08:11:26;;;;;;;10.57;4.93;;;5.40;1.00;;;;;;5039943;28;20269;-59
2021/12/12 08:13:55;;;;;;;7.63;4.17;;;5.40;1.00;;;;;;5015198;28;20279;-59
2021/12/12 08:16:22;;;;;;;8.30;4.67;;;5.40;1.00;;;;;;5022118;28;20230;-60
2021/12/12 08:18:50;;;;;;;12.63;6.17;;;5.40;1.00;;;;;;5022228;28;20196;-59
2021/12/12 08:21:20;;;;;;;15.03;5.67;;;5.50;1.00;;;;;;5041472;28;20204;-60
2021/12/12 08:23:48;;;;;;;8.53;5.00;;;5.50;99.90;;;;;;5041429;28;20851;-59
2021/12/12 08:26:17;;;;;;;6.43;3.63;;;5.50;99.90;;;;;;5027862;28;20203;-60
2021/12/12 08:28:44;;;;;;;7.53;3.40;;;5.50;1.00;;;;;;5028590;28;20199;-59
2021/12/12 08:31:13;;;;;;;7.17;4.57;;;5.60;1.00;;;;;;5028007;28;20224;-59
2021/12/12 08:33:40;;;;;;;8.10;5.53;;;5.60;1.00;;;;;;5038526;28;20184;-59
2021/12/12 08:36:09;;;;;;;9.53;5.00;;;5.60;99.90;;;;;;5039925;28;20195;-59
2021/12/12 08:38:37;;;;;;;6.57;3.70;;;5.70;57.20;;;;;;5039856;28;20234;-60
2021/12/12 08:41:06;;;;;;;5.87;4.27;;;5.70;1.00;;;;;;5016343;28;20227;-59
2021/12/12 08:43:34;;;;;;;9.70;7.27;;;5.70;1.00;;;;;;5000250;28;20251;-60
2021/12/12 08:46:08;;;;;;;6.37;4.33;;;5.70;1.00;;;;;;5021526;28;20196;-60
2021/12/12 08:48:42;;;;;;;15.77;12.67;;;5.80;1.00;;;;;;5019127;28;20205;-60
2021/12/12 08:51:14;;;;;;;5.63;4.50;;;5.80;1.00;;;;;;5020356;28;20208;-59
2021/12/12 08:53:44;;;;;;;5.23;3.60;;;5.80;1.00;;;;;;5020275;28;20189;-59
2021/12/12 08:56:19;;;;;;;5.47;3.00;;;5.80;1.00;;;;;;5036210;28;20209;-59
2021/12/12 08:58:47;;;;;;;4.90;2.70;;;5.80;1.00;;;;;;5036479;28;20227;-59
2021/12/12 09:01:17;;;;;;;5.23;3.23;;;5.80;1.00;;;;;;5023044;28;20208;-59
2021/12/12 09:03:57;;;;;;;5.43;3.77;;;5.80;1.00;;;;;;5021875;28;20223;-57
2021/12/12 09:06:33;;;;;;;6.17;3.67;;;5.90;1.00;;;;;;5035210;28;20231;-59
2021/12/12 09:09:11;;;;;;;5.30;2.93;;;5.90;1.00;;;;;;5018484;28;20644;-58
2021/12/12 09:11:47;;;;;;;5.33;2.60;;;5.90;1.00;;;;;;5022648;28;20250;-58
2021/12/12 09:14:36;;;;;;;3.07;2.53;;;5.90;1.00;;;;;;5020888;28;20239;-59
2021/12/12 09:17:32;;;;;;;5.40;2.67;;;6.00;1.00;;;;;;5020996;28;20719;-59
2021/12/12 09:20:15;;;;;;;5.60;3.30;;;6.10;1.00;;;;;;5018243;28;20745;-60
2021/12/12 09:22:54;;;;;;;5.97;4.10;;;6.10;1.00;;;;;;5019868;28;20223;-58
2021/12/12 09:25:39;;;;;;;6.60;4.00;;;6.10;1.00;;;;;;5020458;28;20189;-58
2021/12/12 09:28:09;;;;;;;2.80;2.27;;;6.10;1.00;;;;;;5034943;28;20204;-59
2021/12/12 09:30:37;;;;;;;7.37;3.77;;;6.20;1.00;;;;;;5019637;28;20252;-59
2021/12/12 09:33:21;;;;;;;3.90;2.70;;;6.20;1.00;;;;;;5021746;28;20192;-59
2021/12/12 09:36:07;;;;;;;5.23;3.00;;;6.20;1.00;;;;;;5019069;28;20199;-58
2021/12/12 09:38:45;;;;;;;4.30;2.63;;;6.30;1.00;;;;;;5020824;28;20671;-60
2021/12/12 09:41:37;;;;;;;5.70;3.10;;;6.20;1.00;;;;;;5021522;28;20249;-59
2021/12/12 09:44:23;;;;;;;8.13;3.47;;;6.30;1.00;;;;;;5017347;28;20722;-59
2021/12/12 09:47:31;;;;;;;5.30;3.27;;;6.40;1.00;;;;;;5019679;28;20212;-59
2021/12/12 09:53:42;;;;;;;4.07;3.00;;;6.40;1.00;;;;;;5036446;28;20255;-59
2021/12/12 09:56:28;;;;;;;5.60;2.60;;;6.40;1.00;;;;;;5034783;28;20247;-59
2021/12/12 09:59:06;;;;;;;3.97;3.10;;;6.40;1.00;;;;;;5020460;28;20671;-59
2021/12/12 10:01:39;;;;;;;4.97;2.80;;;6.40;1.00;;;;;;5017515;28;20212;-59
2021/12/12 10:04:38;;;;;;;4.23;3.30;;;6.50;1.00;;;;;;5018217;28;20708;-57
2021/12/12 10:07:16;;;;;;;6.27;4.03;;;6.60;1.00;;;;;;5022338;28;20204;-58
2021/12/12 10:09:54;;;;;;;6.17;4.23;;;6.50;1.00;;;;;;5019386;28;20289;-57
2021/12/12 10:12:31;;;;;;;6.90;3.70;;;6.60;1.00;;;;;;5019032;28;20261;-59
2021/12/12 10:14:58;;;;;;;28.47;4.63;;;6.70;1.00;;;;;;5020893;28;20249;-59
2021/12/12 10:17:28;;;;;;;5.40;2.70;;;7.10;1.00;;;;;;5019887;28;20215;-60
2021/12/12 10:20:20;;;;;;;4.53;2.87;;;7.30;99.90;;;;;;5034300;28;20224;-60
2021/12/12 10:23:14;;;;;;;5.37;3.20;;;7.20;1.00;;;;;;5019480;28;20205;-59
2021/12/12 10:25:41;;;;;;;3.10;2.50;;;7.10;99.90;;;;;;5034861;28;20204;-59
2021/12/12 10:28:19;;;;;;;5.40;2.97;;;7.00;99.90;;;;;;5021078;28;20209;-59
2021/12/12 10:30:56;;;;;;;4.90;2.87;;;6.90;99.90;;;;;;5018899;28;20451;-59
2021/12/12 10:33:35;;;;;;;4.97;2.20;;;6.80;1.00;;;;;;5019336;28;20213;-59
2021/12/12 10:36:16;;;;;;;5.37;3.60;;;6.80;1.00;;;;;;5036191;28;20275;-59
2021/12/12 10:39:05;;;;;;;5.10;4.40;;;6.90;1.00;;;;;;5024961;28;20639;-58
2021/12/12 10:41:40;;;;;;;5.37;2.93;;;6.90;1.00;;;;;;5037422;28;20219;-59
2021/12/12 10:44:12;;;;;;;9.73;5.50;;;6.90;1.00;;;;;;5037136;28;20252;-59
2021/12/12 10:47:08;;;;;;;4.57;3.50;;;6.90;99.90;;;;;;5039468;28;20191;-59
2021/12/12 10:49:52;;;;;;;4.23;3.70;;;6.90;30.00;;;;;;5038012;28;20204;-59
2021/12/12 10:52:34;;;;;;;4.97;3.20;;;7.00;99.90;;;;;;5028168;28;20659;-59
2021/12/12 10:55:09;;;;;;;5.03;3.37;;;7.10;99.90;;;;;;5037319;28;20196;-59
2021/12/12 10:57:39;;;;;;;4.97;3.50;;;7.20;99.90;;;;;;5039795;28;20211;-59
2021/12/12 11:00:17;;;;;;;4.10;3.07;;;7.30;1.00;;;;;;5037637;28;20196;-59
2021/12/12 11:02:59;;;;;;;3.10;2.80;;;7.20;1.00;;;;;;5038386;28;20238;-59
2021/12/12 11:05:45;;;;;;;3.80;2.87;;;7.20;1.00;;;;;;5040459;28;20609;-60
2021/12/12 11:08:24;;;;;;;6.30;3.03;;;7.30;4.60;;;;;;5039296;28;20705;-59
2021/12/12 11:11:29;;;;;;;4.83;3.90;;;7.30;87.30;;;;;;5020479;28;20238;-59
2021/12/12 11:14:06;;;;;;;3.43;2.83;;;7.30;1.00;;;;;;5017025;28;20211;-58
2021/12/12 11:16:44;;;;;;;4.03;2.73;;;7.30;24.80;;;;;;5040463;28;20191;-58
2021/12/12 11:19:35;;;;;;;5.73;3.20;;;7.30;39.50;;;;;;5037149;28;20588;-59
2021/12/12 11:22:30;;;;;;;4.47;3.60;;;7.30;99.90;;;;;;5042660;28;20297;-60
2021/12/12 11:25:15;;;;;;;5.47;2.90;;;7.20;99.90;;;;;;5033464;28;20243;-59
2021/12/12 11:27:51;;;;;;;4.60;2.97;;;7.30;99.90;;;;;;5031521;28;20687;-61
2021/12/12 11:30:27;;;;;;;3.97;3.17;;;7.20;99.90;;;;;;5043673;28;20300;-59
2021/12/12 11:32:56;;;;;;;3.40;3.10;;;7.20;99.90;;;;;;5023594;28;20196;-59
2021/12/12 11:35:25;;;;;;;5.00;2.70;;;7.20;1.00;;;;;;5041016;28;20258;-59
2021/12/12 11:38:08;;;;;;;4.93;2.77;;;7.20;1.00;;;;;;5042403;28;20219;-59
2021/12/12 11:40:47;;;;;;;6.37;2.90;;;7.20;1.00;;;;;;5022783;28;20231;-59
2021/12/12 11:43:34;;;;;;;4.13;3.73;;;7.20;1.00;;;;;;5043669;28;20204;-59
2021/12/12 11:46:19;;;;;;;3.63;3.00;;;7.20;1.00;;;;;;5039465;28;20616;-59
2021/12/12 11:49:01;;;;;;;4.43;3.60;;;7.30;99.90;;;;;;5043309;28;20278;-59
2021/12/12 11:51:30;;;;;;;3.73;2.90;;;7.30;99.90;;;;;;5039739;28;20313;-59
2021/12/12 11:54:39;;;;;;;4.90;3.60;;;7.20;99.90;;;;;;5042324;28;20414;-59
2021/12/12 11:57:12;;;;;;;3.97;3.27;;;7.20;1.00;;;;;;5023134;28;20671;-59
2021/12/12 11:59:59;;;;;;;5.03;2.93;;;7.30;1.00;;;;;;5042040;28;20212;-59
2021/12/12 12:02:35;;;;;;;4.77;3.30;;;7.20;1.00;;;;;;5038346;28;20536;-59
2021/12/12 12:05:14;;;;;;;5.20;3.60;;;7.30;1.00;;;;;;5037838;28;20794;-58
2021/12/12 12:08:04;;;;;;;4.50;3.77;;;7.30;1.00;;;;;;5039310;28;20244;-59
2021/12/12 12:10:45;;;;;;;4.27;3.70;;;7.30;1.00;;;;;;5020841;28;20573;-59
2021/12/12 12:13:56;;;;;;;5.23;3.97;;;7.20;1.00;;;;;;5039393;28;20233;-59
2021/12/12 12:16:44;;;;;;;9.87;3.70;;;7.20;71.90;;;;;;5037712;28;20905;-59
2021/12/12 12:19:40;;;;;;;6.37;3.93;;;7.30;99.90;;;;;;4987536;28;20230;-59
2021/12/12 12:22:36;;;;;;;7.43;4.00;;;7.30;99.90;;;;;;5026446;28;20203;-59
2021/12/12 12:25:18;;;;;;;5.20;4.23;;;7.30;99.90;;;;;;5022481;28;20564;-59
2021/12/12 12:28:04;;;;;;;5.37;3.83;;;7.40;99.90;;;;;;5028842;28;20494;-59
2021/12/12 12:30:31;;;;;;;5.53;4.47;;;7.40;99.90;;;;;;5038303;28;20238;-59
2021/12/12 12:33:07;;;;;;;8.23;3.93;;;7.40;99.90;;;;;;5036596;28;20656;-58
2021/12/12 12:36:12;;;;;;;10.43;4.60;;;7.40;99.90;;;;;;5041563;28;20306;-58
2021/12/12 12:39:13;;;;;;;9.90;5.80;;;7.40;99.90;;;;;;5040933;28;20192;-59
2021/12/12 12:42:01;;;;;;;6.03;4.83;;;7.40;99.90;;;;;;5041356;28;20248;-59
2021/12/12 12:45:00;;;;;;;5.80;5.03;;;7.40;1.00;;;;;;5041714;28;20223;-58
2021/12/12 12:48:09;;;;;;;9.57;4.73;;;7.40;1.00;;;;;;5034259;28;20697;-59
2021/12/12 12:50:36;;;;;;;5.83;4.77;;;7.40;1.00;;;;;;5031004;28;20263;-59
2021/12/12 12:53:24;;;;;;;8.50;4.77;;;7.40;1.00;;;;;;5039710;28;20183;-59
2021/12/12 12:56:29;;;;;;;5.93;5.17;;;7.40;1.00;;;;;;5039752;28;20223;-59
2021/12/12 12:59:36;;;;;;;9.03;5.57;;;7.40;99.90;;;;;;5037517;28;20241;-59
2021/12/12 13:02:17;;;;;;;11.47;5.37;;;7.40;99.90;;;;;;5040469;28;20222;-59
2021/12/12 13:04:58;;;;;;;7.77;5.03;;;7.30;1.00;;;;;;5039081;28;20215;-60
2021/12/12 13:07:58;;;;;;;7.17;5.37;;;7.40;1.00;;;;;;5025039;28;20679;-59
2021/12/12 13:10:31;;;;;;;6.83;5.40;;;7.40;1.00;;;;;;5040237;28;20442;-59
2021/12/12 13:13:22;;;;;;;31.43;19.63;;;7.40;99.90;;;;;;5034328;28;20648;-60
2021/12/12 13:15:56;;;;;;;10.20;5.60;;;7.40;99.90;;;;;;5024516;28;20710;-59
2021/12/12 13:18:39;;;;;;;7.37;5.87;;;7.40;1.00;;;;;;5036687;28;20247;-58
2021/12/12 13:21:38;;;;;;;6.77;5.17;;;7.40;1.00;;;;;;5036930;28;20222;-59
2021/12/12 13:24:11;;;;;;;7.27;5.30;;;7.50;1.00;;;;;;5038970;28;20223;-59
2021/12/12 13:27:11;;;;;;;7.67;5.77;;;7.50;49.30;;;;;;5036785;28;20257;-59
2021/12/12 13:30:03;;;;;;;11.40;5.40;;;7.50;99.90;;;;;;5040955;28;20290;-59
2021/12/12 13:32:50;;;;;;;13.20;7.57;;;7.50;99.90;;;;;;5021947;28;20717;-59
2021/12/12 13:35:25;;;;;;;11.03;6.67;;;7.50;1.00;;;;;;5039152;28;20207;-59
2021/12/12 13:38:23;;;;;;;12.33;8.40;;;7.50;1.00;;;;;;5028013;28;20199;-59
2021/12/12 13:41:08;;;;;;;12.50;6.33;;;7.50;2.30;;;;;;5038815;28;20263;-59
2021/12/12 13:43:47;;;;;;;9.10;6.37;;;7.50;99.90;;;;;;5038942;28;20227;-59
2021/12/12 13:46:38;;;;;;;7.80;7.00;;;7.50;99.90;;;;;;5037470;28;20660;-58
2021/12/12 13:49:15;;;;;;;12.37;9.20;;;7.50;1.00;;;;;;5012204;28;20200;-57
2021/12/12 13:51:57;;;;;;;8.37;7.43;;;7.60;1.00;;;;;;5034126;28;20303;-57
2021/12/12 13:54:30;;;;;;;8.23;6.13;;;7.60;22.20;;;;;;5048134;28;20199;-57
2021/12/12 13:57:13;;;;;;;9.90;7.33;;;7.60;99.90;;;;;;5031375;28;20950;-57
2021/12/12 14:00:07;;;;;;;14.40;10.83;;;7.60;1.00;;;;;;5033020;28;20240;-57
2021/12/12 14:02:38;;;;;;;11.30;7.57;;;7.60;1.00;;;;;;5048144;28;20623;-56